sensor_id;sensor_type;location;lat;lon;timestamp;P1;durP1;ratioP1;P2;durP2;ratioP2
78783;SDS011;68127;51.050;14.084;2023-11-22T00:00:55;14.98;;;9.43;;
78783;SDS011;68127;51.050;14.084;2023-11-22T00:03:21;15.77;;;9.32;;
78783;SDS011;68127;51.050;14.084;2023-11-22T00:05:48;16.52;;;9.45;;
78783;SDS011;68127;51.050;14.084;2023-11-22T00:08:13;18.20;;;10.60;;
78783;SDS011;68127;51.050;14.084;2023-11-22T00:10:38;16.60;;;9.35;;
78783;SDS011;68127;51.050;14.084;2023-11-22T00:13:04;18.92;;;9.93;;
78783;SDS011;68127;51.050;14.084;2023-11-22T00:15:29;17.92;;;9.93;;
78783;SDS011;68127;51.050;14.084;2023-11-22T00:17:54;17.70;;;10.40;;
78783;SDS011;68127;51.050;14.084;2023-11-22T00:20:20;20.75;;;11.38;;
78783;SDS011;68127;51.050;14.084;2023-11-22T00:22:46;19.38;;;11.15;;
78783;SDS011;68127;51.050;14.084;2023-11-22T00:25:12;17.35;;;10.82;;
78783;SDS011;68127;51.050;14.084;2023-11-22T00:27:38;22.15;;;12.27;;
78783;SDS011;68127;51.050;14.084;2023-11-22T00:30:04;21.70;;;12.15;;
78783;SDS011;68127;51.050;14.084;2023-11-22T00:32:29;19.52;;;11.38;;
78783;SDS011;68127;51.050;14.084;2023-11-22T00:34:55;17.63;;;9.80;;
78783;SDS011;68127;51.050;14.084;2023-11-22T00:37:20;20.92;;;11.85;;
78783;SDS011;68127;51.050;14.084;2023-11-22T00:39:45;20.10;;;11.60;;
78783;SDS011;68127;51.050;14.084;2023-11-22T00:42:11;19.45;;;11.18;;
78783;SDS011;68127;51.050;14.084;2023-11-22T00:44:36;18.60;;;11.35;;
78783;SDS011;68127;51.050;14.084;2023-11-22T00:47:02;20.25;;;11.05;;
78783;SDS011;68127;51.050;14.084;2023-11-22T00:49:28;21.75;;;11.95;;
78783;SDS011;68127;51.050;14.084;2023-11-22T00:51:53;18.95;;;11.10;;
78783;SDS011;68127;51.050;14.084;2023-11-22T00:54:18;20.13;;;11.55;;
78783;SDS011;68127;51.050;14.084;2023-11-22T00:56:47;22.15;;;12.10;;
78783;SDS011;68127;51.050;14.084;2023-11-22T00:59:12;18.83;;;10.35;;
78783;SDS011;68127;51.050;14.084;2023-11-22T01:01:38;22.10;;;11.70;;
78783;SDS011;68127;51.050;14.084;2023-11-22T01:04:04;21.55;;;11.35;;
78783;SDS011;68127;51.050;14.084;2023-11-22T01:06:31;20.00;;;11.25;;
78783;SDS011;68127;51.050;14.084;2023-11-22T01:08:57;21.20;;;11.50;;
78783;SDS011;68127;51.050;14.084;2023-11-22T01:11:22;19.23;;;11.13;;
78783;SDS011;68127;51.050;14.084;2023-11-22T01:13:47;20.77;;;11.77;;
78783;SDS011;68127;51.050;14.084;2023-11-22T01:16:13;21.52;;;11.73;;
78783;SDS011;68127;51.050;14.084;2023-11-22T01:18:38;21.20;;;12.00;;
78783;SDS011;68127;51.050;14.084;2023-11-22T01:21:04;21.17;;;11.68;;
78783;SDS011;68127;51.050;14.084;2023-11-22T01:23:30;24.58;;;12.50;;
78783;SDS011;68127;51.050;14.084;2023-11-22T01:25:57;19.23;;;11.15;;
78783;SDS011;68127;51.050;14.084;2023-11-22T01:28:23;22.83;;;12.95;;
78783;SDS011;68127;51.050;14.084;2023-11-22T01:30:48;24.35;;;12.10;;
78783;SDS011;68127;51.050;14.084;2023-11-22T01:33:14;20.95;;;12.50;;
78783;SDS011;68127;51.050;14.084;2023-11-22T01:35:40;22.10;;;12.50;;
78783;SDS011;68127;51.050;14.084;2023-11-22T01:38:05;22.67;;;11.63;;
78783;SDS011;68127;51.050;14.084;2023-11-22T01:40:31;25.92;;;12.52;;
78783;SDS011;68127;51.050;14.084;2023-11-22T01:42:56;18.73;;;10.88;;
78783;SDS011;68127;51.050;14.084;2023-11-22T01:45:22;22.17;;;11.93;;
78783;SDS011;68127;51.050;14.084;2023-11-22T01:47:47;22.25;;;12.75;;
78783;SDS011;68127;51.050;14.084;2023-11-22T01:50:13;23.02;;;12.70;;
78783;SDS011;68127;51.050;14.084;2023-11-22T01:52:39;19.33;;;11.23;;
78783;SDS011;68127;51.050;14.084;2023-11-22T01:55:05;21.10;;;10.95;;
78783;SDS011;68127;51.050;14.084;2023-11-22T01:57:32;20.60;;;10.57;;
78783;SDS011;68127;51.050;14.084;2023-11-22T02:00:01;18.70;;;10.65;;
78783;SDS011;68127;51.050;14.084;2023-11-22T02:02:28;18.70;;;10.82;;
78783;SDS011;68127;51.050;14.084;2023-11-22T02:04:53;18.88;;;10.65;;
78783;SDS011;68127;51.050;14.084;2023-11-22T02:07:18;19.63;;;10.80;;
78783;SDS011;68127;51.050;14.084;2023-11-22T02:09:44;21.35;;;11.60;;
78783;SDS011;68127;51.050;14.084;2023-11-22T02:12:10;21.83;;;10.60;;
78783;SDS011;68127;51.050;14.084;2023-11-22T02:14:36;22.27;;;11.50;;
78783;SDS011;68127;51.050;14.084;2023-11-22T02:17:02;19.65;;;11.43;;
78783;SDS011;68127;51.050;14.084;2023-11-22T02:19:27;20.45;;;11.15;;
78783;SDS011;68127;51.050;14.084;2023-11-22T02:21:55;22.00;;;11.35;;
78783;SDS011;68127;51.050;14.084;2023-11-22T02:24:20;22.13;;;11.63;;
78783;SDS011;68127;51.050;14.084;2023-11-22T02:26:46;22.90;;;12.13;;
78783;SDS011;68127;51.050;14.084;2023-11-22T02:29:11;22.38;;;11.90;;
78783;SDS011;68127;51.050;14.084;2023-11-22T02:31:38;22.13;;;11.23;;
78783;SDS011;68127;51.050;14.084;2023-11-22T02:34:04;20.77;;;12.20;;
78783;SDS011;68127;51.050;14.084;2023-11-22T02:36:30;25.55;;;12.63;;
78783;SDS011;68127;51.050;14.084;2023-11-22T02:38:56;26.73;;;13.48;;
78783;SDS011;68127;51.050;14.084;2023-11-22T02:41:21;24.35;;;12.13;;
78783;SDS011;68127;51.050;14.084;2023-11-22T02:43:46;25.67;;;12.18;;
78783;SDS011;68127;51.050;14.084;2023-11-22T02:46:12;23.52;;;12.48;;
78783;SDS011;68127;51.050;14.084;2023-11-22T02:48:37;24.00;;;12.27;;
78783;SDS011;68127;51.050;14.084;2023-11-22T02:51:02;23.80;;;11.95;;
78783;SDS011;68127;51.050;14.084;2023-11-22T02:53:28;25.13;;;12.90;;
78783;SDS011;68127;51.050;14.084;2023-11-22T02:55:55;21.83;;;12.20;;
78783;SDS011;68127;51.050;14.084;2023-11-22T02:58:21;25.48;;;13.18;;
78783;SDS011;68127;51.050;14.084;2023-11-22T03:00:46;25.60;;;12.75;;
78783;SDS011;68127;51.050;14.084;2023-11-22T03:03:11;25.48;;;13.10;;
78783;SDS011;68127;51.050;14.084;2023-11-22T03:05:37;26.23;;;12.88;;
78783;SDS011;68127;51.050;14.084;2023-11-22T03:08:03;34.65;;;13.38;;
78783;SDS011;68127;51.050;14.084;2023-11-22T03:10:29;25.30;;;12.77;;
78783;SDS011;68127;51.050;14.084;2023-11-22T03:12:55;29.02;;;13.98;;
78783;SDS011;68127;51.050;14.084;2023-11-22T03:15:20;24.35;;;13.02;;
78783;SDS011;68127;51.050;14.084;2023-11-22T03:17:46;28.00;;;13.73;;
78783;SDS011;68127;51.050;14.084;2023-11-22T03:20:13;26.70;;;12.52;;
78783;SDS011;68127;51.050;14.084;2023-11-22T03:22:38;25.30;;;13.13;;
78783;SDS011;68127;51.050;14.084;2023-11-22T03:25:04;26.70;;;12.82;;
78783;SDS011;68127;51.050;14.084;2023-11-22T03:27:30;29.92;;;13.00;;
78783;SDS011;68127;51.050;14.084;2023-11-22T03:29:55;28.52;;;13.07;;
78783;SDS011;68127;51.050;14.084;2023-11-22T03:32:20;28.23;;;12.50;;
78783;SDS011;68127;51.050;14.084;2023-11-22T03:34:46;25.17;;;12.35;;
78783;SDS011;68127;51.050;14.084;2023-11-22T03:37:12;28.40;;;12.65;;
78783;SDS011;68127;51.050;14.084;2023-11-22T03:39:37;26.38;;;12.60;;
78783;SDS011;68127;51.050;14.084;2023-11-22T03:42:02;26.90;;;12.77;;
78783;SDS011;68127;51.050;14.084;2023-11-22T03:44:28;23.73;;;12.68;;
78783;SDS011;68127;51.050;14.084;2023-11-22T03:46:54;22.75;;;12.45;;
78783;SDS011;68127;51.050;14.084;2023-11-22T03:49:20;26.08;;;13.27;;
78783;SDS011;68127;51.050;14.084;2023-11-22T03:51:46;26.42;;;12.90;;
78783;SDS011;68127;51.050;14.084;2023-11-22T03:54:12;27.38;;;12.30;;
78783;SDS011;68127;51.050;14.084;2023-11-22T03:56:37;25.50;;;11.88;;
78783;SDS011;68127;51.050;14.084;2023-11-22T03:59:03;22.65;;;12.48;;
78783;SDS011;68127;51.050;14.084;2023-11-22T04:01:28;24.52;;;12.52;;
78783;SDS011;68127;51.050;14.084;2023-11-22T04:03:53;25.63;;;12.18;;
78783;SDS011;68127;51.050;14.084;2023-11-22T04:06:19;22.92;;;12.32;;
78783;SDS011;68127;51.050;14.084;2023-11-22T04:08:44;25.73;;;12.07;;
78783;SDS011;68127;51.050;14.084;2023-11-22T04:11:11;22.75;;;11.85;;
78783;SDS011;68127;51.050;14.084;2023-11-22T04:13:37;22.70;;;12.35;;
78783;SDS011;68127;51.050;14.084;2023-11-22T04:16:02;27.30;;;12.23;;
78783;SDS011;68127;51.050;14.084;2023-11-22T04:18:28;24.40;;;11.75;;
78783;SDS011;68127;51.050;14.084;2023-11-22T04:20:53;22.60;;;11.27;;
78783;SDS011;68127;51.050;14.084;2023-11-22T04:23:19;22.52;;;11.70;;
78783;SDS011;68127;51.050;14.084;2023-11-22T04:25:45;23.23;;;11.32;;
78783;SDS011;68127;51.050;14.084;2023-11-22T04:28:10;24.15;;;11.82;;
78783;SDS011;68127;51.050;14.084;2023-11-22T04:30:35;26.05;;;11.57;;
78783;SDS011;68127;51.050;14.084;2023-11-22T04:33:01;21.65;;;11.63;;
78783;SDS011;68127;51.050;14.084;2023-11-22T04:35:26;20.38;;;10.63;;
78783;SDS011;68127;51.050;14.084;2023-11-22T04:37:52;21.67;;;11.50;;
78783;SDS011;68127;51.050;14.084;2023-11-22T04:40:17;25.38;;;12.93;;
78783;SDS011;68127;51.050;14.084;2023-11-22T04:42:43;23.40;;;11.57;;
78783;SDS011;68127;51.050;14.084;2023-11-22T04:45:08;25.33;;;12.10;;
78783;SDS011;68127;51.050;14.084;2023-11-22T04:47:34;23.52;;;11.15;;
78783;SDS011;68127;51.050;14.084;2023-11-22T04:50:00;19.70;;;11.05;;
78783;SDS011;68127;51.050;14.084;2023-11-22T04:52:25;22.67;;;11.80;;
78783;SDS011;68127;51.050;14.084;2023-11-22T04:54:51;23.45;;;12.05;;
78783;SDS011;68127;51.050;14.084;2023-11-22T04:57:16;22.63;;;12.25;;
78783;SDS011;68127;51.050;14.084;2023-11-22T04:59:41;23.95;;;12.25;;
78783;SDS011;68127;51.050;14.084;2023-11-22T05:02:07;22.45;;;12.10;;
78783;SDS011;68127;51.050;14.084;2023-11-22T05:04:33;23.38;;;11.63;;
78783;SDS011;68127;51.050;14.084;2023-11-22T05:06:58;20.85;;;11.80;;
78783;SDS011;68127;51.050;14.084;2023-11-22T05:09:23;25.65;;;12.88;;
78783;SDS011;68127;51.050;14.084;2023-11-22T05:11:49;23.38;;;11.57;;
78783;SDS011;68127;51.050;14.084;2023-11-22T05:14:14;26.65;;;13.43;;
78783;SDS011;68127;51.050;14.084;2023-11-22T05:16:39;25.08;;;13.23;;
78783;SDS011;68127;51.050;14.084;2023-11-22T05:19:05;23.65;;;12.57;;
78783;SDS011;68127;51.050;14.084;2023-11-22T05:21:30;22.92;;;12.43;;
78783;SDS011;68127;51.050;14.084;2023-11-22T05:23:57;23.45;;;12.50;;
78783;SDS011;68127;51.050;14.084;2023-11-22T05:26:22;23.98;;;12.95;;
78783;SDS011;68127;51.050;14.084;2023-11-22T05:28:48;25.40;;;13.10;;
78783;SDS011;68127;51.050;14.084;2023-11-22T05:31:13;25.45;;;13.70;;
78783;SDS011;68127;51.050;14.084;2023-11-22T05:33:39;24.50;;;12.65;;
78783;SDS011;68127;51.050;14.084;2023-11-22T05:36:04;26.05;;;13.40;;
78783;SDS011;68127;51.050;14.084;2023-11-22T05:38:30;22.77;;;12.60;;
78783;SDS011;68127;51.050;14.084;2023-11-22T05:40:56;26.67;;;13.27;;
78783;SDS011;68127;51.050;14.084;2023-11-22T05:43:21;24.27;;;13.40;;
78783;SDS011;68127;51.050;14.084;2023-11-22T05:45:51;25.75;;;13.88;;
78783;SDS011;68127;51.050;14.084;2023-11-22T05:48:16;27.40;;;13.00;;
78783;SDS011;68127;51.050;14.084;2023-11-22T05:50:42;25.00;;;14.30;;
78783;SDS011;68127;51.050;14.084;2023-11-22T05:53:07;27.98;;;13.57;;
78783;SDS011;68127;51.050;14.084;2023-11-22T05:55:33;27.00;;;13.38;;
78783;SDS011;68127;51.050;14.084;2023-11-22T05:57:59;22.88;;;13.57;;
78783;SDS011;68127;51.050;14.084;2023-11-22T06:00:24;23.25;;;12.75;;
78783;SDS011;68127;51.050;14.084;2023-11-22T06:02:50;26.60;;;14.02;;
78783;SDS011;68127;51.050;14.084;2023-11-22T06:05:16;23.38;;;12.20;;
78783;SDS011;68127;51.050;14.084;2023-11-22T06:07:42;26.30;;;12.77;;
78783;SDS011;68127;51.050;14.084;2023-11-22T06:10:07;26.55;;;13.00;;
78783;SDS011;68127;51.050;14.084;2023-11-22T06:12:33;24.10;;;13.13;;
78783;SDS011;68127;51.050;14.084;2023-11-22T06:14:58;25.08;;;12.77;;
78783;SDS011;68127;51.050;14.084;2023-11-22T06:17:23;26.55;;;13.68;;
78783;SDS011;68127;51.050;14.084;2023-11-22T06:19:48;22.65;;;11.98;;
78783;SDS011;68127;51.050;14.084;2023-11-22T06:22:14;21.30;;;11.50;;
78783;SDS011;68127;51.050;14.084;2023-11-22T06:24:39;20.92;;;11.90;;
78783;SDS011;68127;51.050;14.084;2023-11-22T06:27:06;26.88;;;14.27;;
78783;SDS011;68127;51.050;14.084;2023-11-22T06:29:31;24.33;;;13.50;;
78783;SDS011;68127;51.050;14.084;2023-11-22T06:31:56;25.25;;;12.85;;
78783;SDS011;68127;51.050;14.084;2023-11-22T06:34:22;23.70;;;13.60;;
78783;SDS011;68127;51.050;14.084;2023-11-22T06:36:47;27.70;;;13.85;;
78783;SDS011;68127;51.050;14.084;2023-11-22T06:39:12;27.60;;;14.05;;
78783;SDS011;68127;51.050;14.084;2023-11-22T06:41:40;27.52;;;14.05;;
78783;SDS011;68127;51.050;14.084;2023-11-22T06:44:06;28.75;;;13.90;;
78783;SDS011;68127;51.050;14.084;2023-11-22T06:46:31;26.65;;;13.85;;
78783;SDS011;68127;51.050;14.084;2023-11-22T06:48:56;25.38;;;12.57;;
78783;SDS011;68127;51.050;14.084;2023-11-22T06:51:22;22.42;;;12.55;;
78783;SDS011;68127;51.050;14.084;2023-11-22T06:53:47;29.13;;;14.30;;
78783;SDS011;68127;51.050;14.084;2023-11-22T06:56:12;26.92;;;13.98;;
78783;SDS011;68127;51.050;14.084;2023-11-22T06:58:38;26.30;;;13.65;;
78783;SDS011;68127;51.050;14.084;2023-11-22T07:01:03;27.05;;;13.32;;
78783;SDS011;68127;51.050;14.084;2023-11-22T07:03:28;25.83;;;13.20;;
78783;SDS011;68127;51.050;14.084;2023-11-22T07:05:54;26.80;;;14.05;;
78783;SDS011;68127;51.050;14.084;2023-11-22T07:08:19;25.52;;;13.40;;
78783;SDS011;68127;51.050;14.084;2023-11-22T07:10:45;25.95;;;13.05;;
78783;SDS011;68127;51.050;14.084;2023-11-22T07:13:10;25.55;;;12.13;;
78783;SDS011;68127;51.050;14.084;2023-11-22T07:15:37;24.52;;;12.20;;
78783;SDS011;68127;51.050;14.084;2023-11-22T07:18:03;24.73;;;12.40;;
78783;SDS011;68127;51.050;14.084;2023-11-22T07:20:28;21.90;;;11.85;;
78783;SDS011;68127;51.050;14.084;2023-11-22T07:22:53;22.73;;;10.88;;
78783;SDS011;68127;51.050;14.084;2023-11-22T07:25:22;19.10;;;10.25;;
78783;SDS011;68127;51.050;14.084;2023-11-22T07:27:50;21.95;;;10.68;;
78783;SDS011;68127;51.050;14.084;2023-11-22T07:30:18;21.13;;;11.27;;
78783;SDS011;68127;51.050;14.084;2023-11-22T07:32:45;20.08;;;10.65;;
78783;SDS011;68127;51.050;14.084;2023-11-22T07:35:10;23.08;;;12.48;;
78783;SDS011;68127;51.050;14.084;2023-11-22T07:37:37;24.83;;;11.90;;
78783;SDS011;68127;51.050;14.084;2023-11-22T07:40:07;24.05;;;12.45;;
78783;SDS011;68127;51.050;14.084;2023-11-22T07:42:34;21.65;;;11.60;;
78783;SDS011;68127;51.050;14.084;2023-11-22T07:44:59;21.55;;;11.20;;
78783;SDS011;68127;51.050;14.084;2023-11-22T07:47:25;23.08;;;12.27;;
78783;SDS011;68127;51.050;14.084;2023-11-22T07:49:51;22.50;;;10.32;;
78783;SDS011;68127;51.050;14.084;2023-11-22T07:52:17;20.90;;;11.65;;
78783;SDS011;68127;51.050;14.084;2023-11-22T07:54:42;21.58;;;10.73;;
78783;SDS011;68127;51.050;14.084;2023-11-22T07:57:09;25.83;;;11.60;;
78783;SDS011;68127;51.050;14.084;2023-11-22T07:59:34;21.67;;;11.15;;
78783;SDS011;68127;51.050;14.084;2023-11-22T08:02:00;18.80;;;9.30;;
78783;SDS011;68127;51.050;14.084;2023-11-22T08:04:31;20.90;;;10.15;;
78783;SDS011;68127;51.050;14.084;2023-11-22T08:06:57;17.25;;;9.68;;
78783;SDS011;68127;51.050;14.084;2023-11-22T08:09:22;20.60;;;11.05;;
78783;SDS011;68127;51.050;14.084;2023-11-22T08:11:48;20.42;;;10.57;;
78783;SDS011;68127;51.050;14.084;2023-11-22T08:14:14;23.30;;;11.27;;
78783;SDS011;68127;51.050;14.084;2023-11-22T08:16:40;21.33;;;11.15;;
78783;SDS011;68127;51.050;14.084;2023-11-22T08:19:07;25.02;;;11.02;;
78783;SDS011;68127;51.050;14.084;2023-11-22T08:21:33;22.65;;;11.10;;
78783;SDS011;68127;51.050;14.084;2023-11-22T08:23:59;20.95;;;11.50;;
78783;SDS011;68127;51.050;14.084;2023-11-22T08:26:24;20.13;;;10.73;;
78783;SDS011;68127;51.050;14.084;2023-11-22T08:28:50;21.92;;;11.35;;
78783;SDS011;68127;51.050;14.084;2023-11-22T08:31:16;20.65;;;9.15;;
78783;SDS011;68127;51.050;14.084;2023-11-22T08:33:41;20.38;;;9.93;;
78783;SDS011;68127;51.050;14.084;2023-11-22T08:36:07;20.60;;;10.85;;
78783;SDS011;68127;51.050;14.084;2023-11-22T08:38:33;20.00;;;9.73;;
78783;SDS011;68127;51.050;14.084;2023-11-22T08:41:05;18.63;;;9.57;;
78783;SDS011;68127;51.050;14.084;2023-11-22T08:43:31;19.10;;;9.40;;
78783;SDS011;68127;51.050;14.084;2023-11-22T08:45:57;17.75;;;9.57;;
78783;SDS011;68127;51.050;14.084;2023-11-22T08:48:23;20.45;;;9.75;;
78783;SDS011;68127;51.050;14.084;2023-11-22T08:50:49;19.88;;;10.32;;
78783;SDS011;68127;51.050;14.084;2023-11-22T08:53:14;20.83;;;9.95;;
78783;SDS011;68127;51.050;14.084;2023-11-22T08:55:40;20.35;;;9.70;;
78783;SDS011;68127;51.050;14.084;2023-11-22T08:58:05;17.65;;;9.80;;
78783;SDS011;68127;51.050;14.084;2023-11-22T09:00:33;16.27;;;9.02;;
78783;SDS011;68127;51.050;14.084;2023-11-22T09:02:58;16.98;;;9.60;;
78783;SDS011;68127;51.050;14.084;2023-11-22T09:05:23;18.95;;;9.77;;
78783;SDS011;68127;51.050;14.084;2023-11-22T09:07:49;19.40;;;9.43;;
78783;SDS011;68127;51.050;14.084;2023-11-22T09:10:16;16.58;;;8.88;;
78783;SDS011;68127;51.050;14.084;2023-11-22T09:12:43;16.58;;;8.82;;
78783;SDS011;68127;51.050;14.084;2023-11-22T09:15:09;17.60;;;8.88;;
78783;SDS011;68127;51.050;14.084;2023-11-22T09:17:39;17.77;;;9.07;;
78783;SDS011;68127;51.050;14.084;2023-11-22T09:20:14;14.10;;;7.65;;
78783;SDS011;68127;51.050;14.084;2023-11-22T09:22:43;12.57;;;7.18;;
78783;SDS011;68127;51.050;14.084;2023-11-22T09:25:12;15.73;;;7.80;;
78783;SDS011;68127;51.050;14.084;2023-11-22T09:27:47;13.88;;;7.70;;
78783;SDS011;68127;51.050;14.084;2023-11-22T09:30:16;13.32;;;7.18;;
78783;SDS011;68127;51.050;14.084;2023-11-22T09:32:57;15.85;;;7.68;;
78783;SDS011;68127;51.050;14.084;2023-11-22T09:35:29;16.55;;;8.40;;
78783;SDS011;68127;51.050;14.084;2023-11-22T09:37:56;16.13;;;8.38;;
78783;SDS011;68127;51.050;14.084;2023-11-22T09:40:22;17.42;;;8.85;;
78783;SDS011;68127;51.050;14.084;2023-11-22T09:42:48;17.08;;;8.68;;
78783;SDS011;68127;51.050;14.084;2023-11-22T09:45:16;14.57;;;8.05;;
78783;SDS011;68127;51.050;14.084;2023-11-22T09:47:45;17.08;;;8.60;;
78783;SDS011;68127;51.050;14.084;2023-11-22T09:50:16;16.67;;;8.20;;
78783;SDS011;68127;51.050;14.084;2023-11-22T09:52:44;13.55;;;7.47;;
78783;SDS011;68127;51.050;14.084;2023-11-22T09:55:11;17.17;;;8.05;;
78783;SDS011;68127;51.050;14.084;2023-11-22T09:57:36;15.38;;;8.38;;
78783;SDS011;68127;51.050;14.084;2023-11-22T10:00:04;14.55;;;8.52;;
78783;SDS011;68127;51.050;14.084;2023-11-22T10:02:30;16.08;;;7.97;;
78783;SDS011;68127;51.050;14.084;2023-11-22T10:04:56;16.05;;;8.30;;
78783;SDS011;68127;51.050;14.084;2023-11-22T10:07:22;13.80;;;8.15;;
78783;SDS011;68127;51.050;14.084;2023-11-22T10:09:47;13.40;;;7.28;;
78783;SDS011;68127;51.050;14.084;2023-11-22T10:12:20;12.18;;;7.28;;
78783;SDS011;68127;51.050;14.084;2023-11-22T10:15:24;13.18;;;7.32;;
78783;SDS011;68127;51.050;14.084;2023-11-22T10:17:55;15.25;;;7.22;;
78783;SDS011;68127;51.050;14.084;2023-11-22T10:20:25;15.20;;;7.97;;
78783;SDS011;68127;51.050;14.084;2023-11-22T10:23:15;13.43;;;7.97;;
78783;SDS011;68127;51.050;14.084;2023-11-22T10:25:47;13.80;;;7.88;;
78783;SDS011;68127;51.050;14.084;2023-11-22T10:28:15;12.82;;;7.15;;
78783;SDS011;68127;51.050;14.084;2023-11-22T10:30:42;12.55;;;6.97;;
78783;SDS011;68127;51.050;14.084;2023-11-22T10:33:09;13.60;;;6.88;;
78783;SDS011;68127;51.050;14.084;2023-11-22T10:35:38;11.55;;;6.43;;
78783;SDS011;68127;51.050;14.084;2023-11-22T10:38:07;14.32;;;6.45;;
78783;SDS011;68127;51.050;14.084;2023-11-22T10:40:33;11.57;;;6.50;;
78783;SDS011;68127;51.050;14.084;2023-11-22T10:42:59;11.00;;;6.05;;
78783;SDS011;68127;51.050;14.084;2023-11-22T10:45:26;12.52;;;6.75;;
78783;SDS011;68127;51.050;14.084;2023-11-22T10:47:53;12.70;;;7.13;;
78783;SDS011;68127;51.050;14.084;2023-11-22T10:50:20;12.45;;;6.63;;
78783;SDS011;68127;51.050;14.084;2023-11-22T10:52:45;12.98;;;6.82;;
78783;SDS011;68127;51.050;14.084;2023-11-22T10:55:14;12.30;;;6.75;;
78783;SDS011;68127;51.050;14.084;2023-11-22T10:57:45;13.80;;;7.10;;
78783;SDS011;68127;51.050;14.084;2023-11-22T11:00:13;13.73;;;7.35;;
78783;SDS011;68127;51.050;14.084;2023-11-22T11:02:40;14.98;;;8.55;;
78783;SDS011;68127;51.050;14.084;2023-11-22T11:05:16;14.65;;;7.75;;
78783;SDS011;68127;51.050;14.084;2023-11-22T11:07:48;23.17;;;12.20;;
78783;SDS011;68127;51.050;14.084;2023-11-22T11:10:16;23.92;;;11.90;;
78783;SDS011;68127;51.050;14.084;2023-11-22T11:12:44;18.30;;;10.30;;
78783;SDS011;68127;51.050;14.084;2023-11-22T11:15:10;19.38;;;10.60;;
78783;SDS011;68127;51.050;14.084;2023-11-22T11:17:35;13.77;;;8.00;;
78783;SDS011;68127;51.050;14.084;2023-11-22T11:20:03;10.23;;;6.75;;
78783;SDS011;68127;51.050;14.084;2023-11-22T11:22:31;12.70;;;7.15;;
78783;SDS011;68127;51.050;14.084;2023-11-22T11:25:04;13.27;;;8.05;;
78783;SDS011;68127;51.050;14.084;2023-11-22T11:27:39;10.88;;;6.85;;
78783;SDS011;68127;51.050;14.084;2023-11-22T11:32:58;13.77;;;7.90;;
78783;SDS011;68127;51.050;14.084;2023-11-22T11:35:42;12.63;;;6.88;;
78783;SDS011;68127;51.050;14.084;2023-11-22T11:38:11;9.77;;;6.10;;
78783;SDS011;68127;51.050;14.084;2023-11-22T11:40:38;12.98;;;7.20;;
78783;SDS011;68127;51.050;14.084;2023-11-22T11:43:05;11.93;;;6.72;;
78783;SDS011;68127;51.050;14.084;2023-11-22T11:45:34;11.55;;;6.80;;
78783;SDS011;68127;51.050;14.084;2023-11-22T11:48:01;11.57;;;7.10;;
78783;SDS011;68127;51.050;14.084;2023-11-22T11:50:26;11.85;;;6.97;;
78783;SDS011;68127;51.050;14.084;2023-11-22T11:52:52;12.98;;;6.63;;
78783;SDS011;68127;51.050;14.084;2023-11-22T11:55:18;11.85;;;7.72;;
78783;SDS011;68127;51.050;14.084;2023-11-22T11:57:43;12.93;;;6.75;;
78783;SDS011;68127;51.050;14.084;2023-11-22T12:00:11;12.30;;;6.45;;
78783;SDS011;68127;51.050;14.084;2023-11-22T12:02:39;11.57;;;6.50;;
78783;SDS011;68127;51.050;14.084;2023-11-22T12:05:05;13.25;;;6.57;;
78783;SDS011;68127;51.050;14.084;2023-11-22T12:07:33;13.10;;;6.82;;
78783;SDS011;68127;51.050;14.084;2023-11-22T12:09:59;12.68;;;7.10;;
78783;SDS011;68127;51.050;14.084;2023-11-22T12:12:25;11.68;;;6.72;;
78783;SDS011;68127;51.050;14.084;2023-11-22T12:14:50;12.90;;;7.35;;
78783;SDS011;68127;51.050;14.084;2023-11-22T12:17:15;13.45;;;7.15;;
78783;SDS011;68127;51.050;14.084;2023-11-22T12:19:41;15.23;;;7.63;;
78783;SDS011;68127;51.050;14.084;2023-11-22T12:22:06;10.50;;;6.25;;
78783;SDS011;68127;51.050;14.084;2023-11-22T12:24:32;10.55;;;6.10;;
78783;SDS011;68127;51.050;14.084;2023-11-22T12:26:58;13.50;;;5.95;;
78783;SDS011;68127;51.050;14.084;2023-11-22T12:29:24;10.98;;;5.47;;
78783;SDS011;68127;51.050;14.084;2023-11-22T12:31:50;8.95;;;5.20;;
78783;SDS011;68127;51.050;14.084;2023-11-22T12:34:21;10.30;;;5.57;;
78783;SDS011;68127;51.050;14.084;2023-11-22T12:36:47;9.23;;;5.60;;
78783;SDS011;68127;51.050;14.084;2023-11-22T12:39:12;10.93;;;5.50;;
78783;SDS011;68127;51.050;14.084;2023-11-22T12:41:45;9.85;;;5.45;;
78783;SDS011;68127;51.050;14.084;2023-11-22T12:44:12;11.23;;;5.32;;
78783;SDS011;68127;51.050;14.084;2023-11-22T12:46:50;9.90;;;5.78;;
78783;SDS011;68127;51.050;14.084;2023-11-22T12:49:24;9.23;;;5.18;;
78783;SDS011;68127;51.050;14.084;2023-11-22T12:51:50;8.32;;;5.25;;
78783;SDS011;68127;51.050;14.084;2023-11-22T12:54:19;11.15;;;6.00;;
78783;SDS011;68127;51.050;14.084;2023-11-22T12:56:49;11.43;;;5.90;;
78783;SDS011;68127;51.050;14.084;2023-11-22T12:59:16;12.23;;;6.10;;
78783;SDS011;68127;51.050;14.084;2023-11-22T13:01:41;12.80;;;8.15;;
78783;SDS011;68127;51.050;14.084;2023-11-22T13:04:07;18.23;;;11.38;;
78783;SDS011;68127;51.050;14.084;2023-11-22T13:06:33;14.18;;;8.38;;
78783;SDS011;68127;51.050;14.084;2023-11-22T13:08:58;11.10;;;6.60;;
78783;SDS011;68127;51.050;14.084;2023-11-22T13:11:23;11.82;;;7.28;;
78783;SDS011;68127;51.050;14.084;2023-11-22T13:13:49;12.25;;;6.65;;
78783;SDS011;68127;51.050;14.084;2023-11-22T13:16:15;11.77;;;6.25;;
78783;SDS011;68127;51.050;14.084;2023-11-22T13:18:41;13.50;;;7.75;;
78783;SDS011;68127;51.050;14.084;2023-11-22T13:21:06;12.15;;;7.13;;
78783;SDS011;68127;51.050;14.084;2023-11-22T13:23:31;11.30;;;6.68;;
78783;SDS011;68127;51.050;14.084;2023-11-22T13:25:58;10.63;;;6.13;;
78783;SDS011;68127;51.050;14.084;2023-11-22T13:28:23;11.18;;;6.10;;
78783;SDS011;68127;51.050;14.084;2023-11-22T13:30:50;10.70;;;6.00;;
78783;SDS011;68127;51.050;14.084;2023-11-22T13:33:15;10.13;;;5.75;;
78783;SDS011;68127;51.050;14.084;2023-11-22T13:35:41;12.80;;;6.30;;
78783;SDS011;68127;51.050;14.084;2023-11-22T13:38:06;12.02;;;6.50;;
78783;SDS011;68127;51.050;14.084;2023-11-22T13:40:36;11.15;;;6.32;;
78783;SDS011;68127;51.050;14.084;2023-11-22T13:43:04;11.65;;;6.32;;
78783;SDS011;68127;51.050;14.084;2023-11-22T13:45:29;11.40;;;6.32;;
78783;SDS011;68127;51.050;14.084;2023-11-22T13:47:54;10.80;;;6.60;;
78783;SDS011;68127;51.050;14.084;2023-11-22T13:50:25;12.13;;;6.60;;
78783;SDS011;68127;51.050;14.084;2023-11-22T13:52:52;12.25;;;6.68;;
78783;SDS011;68127;51.050;14.084;2023-11-22T13:55:18;12.57;;;7.05;;
78783;SDS011;68127;51.050;14.084;2023-11-22T13:57:53;14.57;;;7.18;;
78783;SDS011;68127;51.050;14.084;2023-11-22T14:00:20;12.55;;;7.70;;
78783;SDS011;68127;51.050;14.084;2023-11-22T14:02:50;14.43;;;7.82;;
78783;SDS011;68127;51.050;14.084;2023-11-22T14:05:22;12.13;;;7.35;;
78783;SDS011;68127;51.050;14.084;2023-11-22T14:07:48;13.27;;;6.50;;
78783;SDS011;68127;51.050;14.084;2023-11-22T14:10:17;15.65;;;5.80;;
78783;SDS011;68127;51.050;14.084;2023-11-22T14:12:43;10.30;;;6.20;;